Time;durP1;ratioP1;P1;durP2;ratioP2;P2;SDS_P1;SDS_P2;PMS_P1;PMS_P2;Temp;Humidity;BMP_temperature;BMP_pressure;BME280_temperature;BME280_humidity;BME280_pressure;Samples;Min_cycle;Max_cycle;Signal;HPM_P1;HPM_P2
2023/10/16 00:01:49;;;;;;;;;;;6.70;99.90;;;;;;7345698;19;108690;-72
2023/10/16 00:04:18;;;;;;;;;;;6.60;99.90;;;;;;7343871;19;109230;-71
2023/10/16 00:06:49;;;;;;;;;;;6.60;99.90;;;;;;7342768;19;108563;-71
2023/10/16 00:09:22;;;;;;;;;;;6.60;99.90;;;;;;7346581;19;109497;-71
2023/10/16 00:11:49;;;;;;;;;;;6.50;99.90;;;;;;7344354;19;109327;-71
2023/10/16 00:14:23;;;;;;;;;;;6.50;99.90;;;;;;7342950;19;109247;-71
2023/10/16 00:16:51;;;;;;;;;;;6.50;99.90;;;;;;7344454;19;109616;-73
2023/10/16 00:19:18;;;;;;;;;;;6.50;99.90;;;;;;7348107;19;110162;-71
2023/10/16 00:21:46;;;;;;;;;;;6.50;99.90;;;;;;7333004;19;110016;-73
2023/10/16 00:24:13;;;;;;;;;;;6.50;99.90;;;;;;7336705;19;109778;-73
2023/10/16 00:26:48;;;;;;;;;;;6.50;99.90;;;;;;7337277;19;108584;-73
2023/10/16 00:29:19;;;;;;;;;;;6.40;99.90;;;;;;7334504;19;108959;-73
2023/10/16 00:31:51;;;;;;;;;;;6.40;99.90;;;;;;7334961;19;109514;-74
2023/10/16 00:34:22;;;;;;;;;;;6.40;99.90;;;;;;7335742;19;108823;-71
2023/10/16 00:36:50;;;;;;;;;;;6.30;99.90;;;;;;7335668;19;110515;-73
2023/10/16 00:39:19;;;;;;;;;;;6.30;99.90;;;;;;7337308;19;108646;-72
2023/10/16 00:41:46;;;;;;;;;;;6.20;99.90;;;;;;7341480;19;109831;-71
2023/10/16 00:44:17;;;;;;;;;;;6.20;99.90;;;;;;7334691;19;110137;-71
2023/10/16 00:46:50;;;;;;;;;;;6.20;99.90;;;;;;7336917;19;110200;-71
2023/10/16 00:49:18;;;;;;;;;;;6.20;99.90;;;;;;7337718;19;108571;-71
2023/10/16 00:51:46;;;;;;;;;;;6.20;99.90;;;;;;7334956;19;109043;-71
2023/10/16 00:54:18;;;;;;;;;;;6.20;99.90;;;;;;7333510;19;109104;-73
2023/10/16 00:56:47;;;;;;;;;;;6.20;99.90;;;;;;7335727;19;109609;-71
2023/10/16 00:59:16;;;;;;;;;;;6.20;99.90;;;;;;7334660;19;109645;-71
2023/10/16 01:01:44;;;;;;;;;;;6.20;99.90;;;;;;7330580;19;109451;-76
2023/10/16 01:04:13;;;;;;;;;;;6.20;99.90;;;;;;7337949;19;109147;-81
2023/10/16 01:06:41;;;;;;;;;;;6.10;99.90;;;;;;7333866;19;109166;-77
2023/10/16 01:09:08;;;;;;;;;;;6.10;99.90;;;;;;7332671;19;108777;-74
2023/10/16 01:11:38;;;;;;;;;;;6.10;99.90;;;;;;7327810;19;109486;-89
2023/10/16 01:14:08;;;;;;;;;;;6.10;99.90;;;;;;7331911;19;109113;-89
2023/10/16 01:16:35;;;;;;;;;;;6.10;99.90;;;;;;7323191;19;109264;-89
2023/10/16 01:19:06;;;;;;;;;;;6.10;99.90;;;;;;7331839;19;110393;-89
2023/10/16 01:21:33;;;;;;;;;;;6.10;99.90;;;;;;7331253;19;109566;-89
2023/10/16 01:24:03;;;;;;;;;;;6.00;99.90;;;;;;7323300;19;108673;-89
2023/10/16 01:26:30;;;;;;;;;;;6.00;99.90;;;;;;7336821;19;110196;-89
2023/10/16 01:28:57;;;;;;;;;;;6.00;99.90;;;;;;7328426;19;109144;-89
2023/10/16 01:31:25;;;;;;;;;;;6.00;99.90;;;;;;7323638;19;110539;-89
2023/10/16 01:33:54;;;;;;;;;;;6.00;99.90;;;;;;7331945;19;110212;-89
2023/10/16 01:36:23;;;;;;;;;;;6.00;99.90;;;;;;7324742;19;109706;-89
2023/10/16 01:38:50;;;;;;;;;;;6.00;99.90;;;;;;7328150;19;113085;-89
2023/10/16 01:41:18;;;;;;;;;;;5.90;99.90;;;;;;7323347;19;109337;-89
2023/10/16 01:43:45;;;;;;;;;;;6.00;99.90;;;;;;7328316;19;110993;-90
2023/10/16 01:46:13;;;;;;;;;;;6.00;99.90;;;;;;7325317;19;110693;-90
2023/10/16 01:48:42;;;;;;;;;;;6.00;99.90;;;;;;7333446;19;111647;-89
2023/10/16 01:51:09;;;;;;;;;;;6.00;99.90;;;;;;7325984;19;113322;-89
2023/10/16 01:53:36;;;;;;;;;;;6.00;99.90;;;;;;7326550;19;110683;-90
2023/10/16 01:56:12;;;;;;;;;;;6.00;99.90;;;;;;7328890;19;109182;-89
2023/10/16 01:58:44;;;;;;;;;;;6.00;99.90;;;;;;7328132;19;110449;-89
2023/10/16 02:01:12;;;;;;;;;;;6.00;99.90;;;;;;7324021;19;110037;-89
2023/10/16 02:03:45;;;;;;;;;;;6.00;99.90;;;;;;7326320;19;108754;-89
2023/10/16 02:06:13;;;;;;;;;;;5.90;99.90;;;;;;7325105;19;109489;-90
2023/10/16 02:08:40;;;;;;;;;;;5.90;99.90;;;;;;7327911;19;109083;-89
2023/10/16 02:11:09;;;;;;;;;;;5.90;99.90;;;;;;7332769;19;108972;-89
2023/10/16 02:13:36;;;;;;;;;;;5.90;99.90;;;;;;7327068;19;112745;-90
2023/10/16 02:16:06;;;;;;;;;;;5.80;99.90;;;;;;7324797;19;108816;-89
2023/10/16 02:18:37;;;;;;;;;;;5.80;99.90;;;;;;7325997;19;110660;-89
2023/10/16 02:21:13;;;;;;;;;;;5.90;99.90;;;;;;7326249;19;110376;-90
2023/10/16 02:23:44;;;;;;;;;;;5.80;99.90;;;;;;7329389;19;108824;-89
2023/10/16 02:26:18;;;;;;;;;;;5.80;99.90;;;;;;7322432;19;112857;-89
2023/10/16 02:28:54;;;;;;;;;;;5.80;99.90;;;;;;7328839;19;109977;-89
2023/10/16 02:31:21;;;;;;;;;;;5.80;99.90;;;;;;7331247;19;109160;-89
2023/10/16 02:33:54;;;;;;;;;;;5.80;99.90;;;;;;7330229;19;108933;-90
2023/10/16 02:36:22;;;;;;;;;;;5.80;99.90;;;;;;7330367;19;109105;-90
2023/10/16 02:38:50;;;;;;;;;;;5.80;99.90;;;;;;7333584;19;108645;-89
2023/10/16 02:41:20;;;;;;;;;;;5.80;99.90;;;;;;7327170;19;108866;-90
2023/10/16 02:43:48;;;;;;;;;;;5.70;99.90;;;;;;7331933;19;109581;-89
2023/10/16 02:46:21;;;;;;;;;;;5.70;99.90;;;;;;7324317;19;111910;-89
2023/10/16 02:48:48;;;;;;;;;;;5.70;99.90;;;;;;7332543;19;109630;-90
2023/10/16 02:51:18;;;;;;;;;;;5.70;99.90;;;;;;7343961;19;112154;-89
2023/10/16 02:53:48;;;;;;;;;;;5.70;99.90;;;;;;7368748;19;108884;-90
2023/10/16 02:56:15;;;;;;;;;;;5.70;99.90;;;;;;7366172;19;109018;-89
2023/10/16 02:58:57;;;;;;;;;;;5.60;99.90;;;;;;7368186;19;108247;-90
2023/10/16 03:01:25;;;;;;;;;;;5.60;99.90;;;;;;7365519;19;110401;-89
2023/10/16 03:03:58;;;;;;;;;;;5.60;99.90;;;;;;7360061;19;108962;-89
2023/10/16 03:06:26;;;;;;;;;;;5.60;99.90;;;;;;7366367;19;109616;-90
2023/10/16 03:09:09;;;;;;;;;;;5.60;99.90;;;;;;7366165;19;108808;-89
2023/10/16 03:11:36;;;;;;;;;;;5.70;99.90;;;;;;7345820;19;110351;-90
2023/10/16 03:14:11;;;;;;;;;;;5.60;99.90;;;;;;7327862;19;109260;-90
2023/10/16 03:16:38;;;;;;;;;;;5.60;99.90;;;;;;7333942;19;108297;-90
2023/10/16 03:19:12;;;;;;;;;;;5.50;99.90;;;;;;7331278;19;110216;-90
2023/10/16 03:21:45;;;;;;;;;;;5.50;99.90;;;;;;7328888;19;108649;-89
2023/10/16 03:24:12;;;;;;;;;;;5.50;99.90;;;;;;7330594;19;110426;-89
2023/10/16 03:26:42;;;;;;;;;;;5.50;99.90;;;;;;7330326;19;109069;-90
2023/10/16 03:29:10;;;;;;;;;;;5.50;99.90;;;;;;7328528;19;108849;-90
2023/10/16 03:31:39;;;;;;;;;;;5.50;99.90;;;;;;7328969;19;108862;-90
2023/10/16 03:34:11;;;;;;;;;;;5.50;99.90;;;;;;7328143;19;112351;-90
2023/10/16 03:36:41;;;;;;;;;;;5.50;99.90;;;;;;7326934;19;109217;-90
2023/10/16 03:39:12;;;;;;;;;;;5.50;99.90;;;;;;7332241;19;110434;-89
2023/10/16 03:41:42;;;;;;;;;;;5.50;99.90;;;;;;7328229;19;109153;-89
2023/10/16 03:44:14;;;;;;;;;;;5.50;99.90;;;;;;7325471;19;110708;-89
2023/10/16 03:46:41;;;;;;;;;;;5.50;99.90;;;;;;7325418;19;110902;-89
2023/10/16 03:49:09;;;;;;;;;;;5.40;99.90;;;;;;7324037;19;109619;-89
2023/10/16 03:51:38;;;;;;;;;;;5.40;99.90;;;;;;7331070;19;109230;-90
2023/10/16 03:54:05;;;;;;;;;;;5.50;99.90;;;;;;7326685;19;110523;-90
2023/10/16 03:56:32;;;;;;;;;;;5.50;99.90;;;;;;7333465;19;109166;-90
2023/10/16 03:59:00;;;;;;;;;;;5.40;99.90;;;;;;7332534;19;109342;-89
2023/10/16 04:01:27;;;;;;;;;;;5.40;99.90;;;;;;7339297;19;109184;-89
2023/10/16 04:03:57;;;;;;;;;;;5.40;99.90;;;;;;7330764;19;111646;-89
2023/10/16 04:06:25;;;;;;;;;;;5.40;99.90;;;;;;7331866;19;110856;-90
2023/10/16 04:08:53;;;;;;;;;;;5.40;99.90;;;;;;7333125;19;109605;-89
2023/10/16 04:11:21;;;;;;;;;;;5.50;99.90;;;;;;7334124;19;109327;-89
2023/10/16 04:13:48;;;;;;;;;;;5.40;99.90;;;;;;7332418;19;110446;-90
2023/10/16 04:22:17;;;;;;;;;;;5.50;99.90;;;;;;7331174;19;112136;-90
2023/10/16 04:24:46;;;;;;;;;;;5.50;99.90;;;;;;7338644;19;110545;-89
2023/10/16 04:29:49;;;;;;;;;;;5.50;99.90;;;;;;7334070;19;108931;-90
2023/10/16 04:38:52;;;;;;;;;;;5.40;99.90;;;;;;7327028;19;108945;-89
2023/10/16 04:44:24;;;;;;;;;;;5.40;99.90;;;;;;7326178;19;112036;-89
2023/10/16 04:47:00;;;;;;;;;;;5.40;99.90;;;;;;7334213;19;109830;-89
2023/10/16 04:49:31;;;;;;;;;;;5.40;99.90;;;;;;7327457;19;109533;-89
2023/10/16 04:52:06;;;;;;;;;;;5.40;99.90;;;;;;7329969;19;108498;-89
2023/10/16 05:00:00;;;;;;;;;;;5.40;99.90;;;;;;7325556;19;109888;-89
2023/10/16 05:02:34;;;;;;;;;;;5.40;99.90;;;;;;7327720;19;110111;-89
2023/10/16 05:13:37;;;;;;;;;;;5.40;99.90;;;;;;7329893;19;109291;-89
2023/10/16 05:16:47;;;;;;;;;;;5.40;99.90;;;;;;7330399;19;110270;-89
2023/10/16 05:19:04;;;;;;;;;;;5.40;99.90;;;;;;7327560;19;109569;-90
2023/10/16 06:14:11;;;;;;;;;;;5.30;99.90;;;;;;7332304;19;109393;-73
2023/10/16 06:16:39;;;;;;;;;;;5.30;99.90;;;;;;7334367;19;109109;-72
2023/10/16 06:19:17;;;;;;;;;;;5.20;99.90;;;;;;7329275;19;109647;-72
2023/10/16 06:21:46;;;;;;;;;;;5.20;99.90;;;;;;7333538;19;109389;-74
2023/10/16 06:25:00;;;;;;;;;;;5.20;99.90;;;;;;7338101;19;108488;-71
2023/10/16 06:27:10;;;;;;;;;;;5.20;99.90;;;;;;7334581;19;108515;-72
2023/10/16 06:29:49;;;;;;;;;;;5.20;99.90;;;;;;7334348;19;108356;-72
2023/10/16 06:32:25;;;;;;;;;;;5.20;99.90;;;;;;7334500;19;109225;-75
2023/10/16 06:35:01;;;;;;;;;;;5.20;99.90;;;;;;7333867;19;108666;-79
2023/10/16 06:37:31;;;;;;;;;;;5.30;99.90;;;;;;7332803;19;108503;-75
2023/10/16 06:40:00;;;;;;;;;;;5.20;99.90;;;;;;7334491;19;110253;-88
2023/10/16 06:42:28;;;;;;;;;;;5.30;99.90;;;;;;7334003;19;109768;-89
2023/10/16 06:45:06;;;;;;;;;;;5.30;99.90;;;;;;7338370;19;110504;-88
2023/10/16 06:47:36;;;;;;;;;;;5.30;99.90;;;;;;7331893;19;109059;-87
2023/10/16 06:50:35;;;;;;;;;;;5.30;99.90;;;;;;7331901;19;109443;-89
2023/10/16 06:52:53;;;;;;;;;;;5.30;99.90;;;;;;7335283;19;109720;-86
2023/10/16 06:55:23;;;;;;;;;;;5.30;99.90;;;;;;7331697;19;109006;-90
2023/10/16 06:57:50;;;;;;;;;;;5.40;99.90;;;;;;7338027;19;110380;-92
2023/10/16 07:00:27;;;;;;;;;;;5.40;99.90;;;;;;7333245;19;109104;-77
2023/10/16 07:02:56;;;;;;;;;;;5.50;99.90;;;;;;7335075;19;110135;-75
2023/10/16 07:05:25;;;;;;;;;;;5.60;99.90;;;;;;7331509;19;109120;-76
2023/10/16 07:07:56;;;;;;;;;;;5.60;99.90;;;;;;7338849;19;109372;-76
2023/10/16 07:10:28;;;;;;;;;;;5.60;99.90;;;;;;7332695;19;108523;-76
2023/10/16 07:13:02;;;;;;;;;;;5.70;99.90;;;;;;7334537;19;109717;-76
2023/10/16 07:15:30;;;;;;;;;;;5.80;99.90;;;;;;7335155;19;109872;-76
2023/10/16 07:18:13;;;;;;;;;;;5.80;99.90;;;;;;7332666;19;109640;-76
2023/10/16 07:23:40;;;;;;;;;;;6.00;99.90;;;;;;7332578;19;108381;-75
2023/10/16 07:26:12;;;;;;;;;;;6.10;99.90;;;;;;7333905;19;109385;-76
2023/10/16 07:28:39;;;;;;;;;;;6.20;99.90;;;;;;7331033;19;109471;-75
2023/10/16 07:31:10;;;;;;;;;;;6.20;99.90;;;;;;7343734;19;108875;-75
2023/10/16 07:33:41;;;;;;;;;;;6.30;99.90;;;;;;7342746;19;110145;-74
2023/10/16 07:36:11;;;;;;;;;;;6.40;99.90;;;;;;7338718;19;108710;-74
2023/10/16 07:38:39;;;;;;;;;;;6.50;99.90;;;;;;7343073;19;109367;-74
2023/10/16 07:41:11;;;;;;;;;;;6.50;99.90;;;;;;7341153;19;110616;-74
2023/10/16 07:43:39;;;;;;;;;;;6.60;99.90;;;;;;7341302;19;109253;-75
2023/10/16 07:48:52;;;;;;;;;;;6.80;99.90;;;;;;7341365;19;109498;-75
2023/10/16 07:51:21;;;;;;;;;;;6.90;99.90;;;;;;7339496;19;109925;-73
2023/10/16 07:53:48;;;;;;;;;;;6.90;99.90;;;;;;7343897;19;112572;-73
2023/10/16 07:56:19;;;;;;;;;;;7.00;99.90;;;;;;7339598;19;111766;-73
2023/10/16 07:58:49;;;;;;;;;;;7.10;99.90;;;;;;7337927;19;109819;-74
2023/10/16 08:01:17;;;;;;;;;;;7.20;99.90;;;;;;7338309;19;110463;-73
2023/10/16 08:03:48;;;;;;;;;;;7.10;99.90;;;;;;7339390;19;110223;-74
2023/10/16 08:06:23;;;;;;;;;;;7.20;99.90;;;;;;7338835;19;111204;-73
2023/10/16 08:11:46;;;;;;;;;;;7.40;99.90;;;;;;7339960;19;108962;-73
2023/10/16 08:14:13;;;;;;;;;;;7.50;99.90;;;;;;7338029;19;110116;-72
2023/10/16 08:16:40;;;;;;;;;;;7.60;99.90;;;;;;7344991;19;111436;-74
2023/10/16 08:19:24;;;;;;;;;;;7.70;99.90;;;;;;7336941;19;109466;-74
2023/10/16 08:21:56;;;;;;;;;;;7.80;99.90;;;;;;7338059;19;109589;-73
2023/10/16 08:24:24;;;;;;;;;;;8.00;99.90;;;;;;7336314;19;108966;-74
2023/10/16 08:26:52;;;;;;;;;;;8.10;99.90;;;;;;7341781;19;109591;-72
2023/10/16 08:29:20;;;;;;;;;;;8.20;99.90;;;;;;7336987;19;110189;-73
2023/10/16 08:32:14;;;;;;;;;;;8.30;99.90;;;;;;7336796;19;108861;-72
2023/10/16 08:34:35;;;;;;;;;;;8.50;99.90;;;;;;7337354;19;109314;-74
2023/10/16 08:37:07;;;;;;;;;;;8.60;99.90;;;;;;7336984;19;111510;-76
2023/10/16 08:39:37;;;;;;;;;;;8.70;99.90;;;;;;7345595;19;109264;-74
2023/10/16 08:42:18;;;;;;;;;;;8.80;99.90;;;;;;7332883;19;109578;-74
2023/10/16 08:44:51;;;;;;;;;;;8.90;99.90;;;;;;7337261;19;108476;-73
2023/10/16 08:47:24;;;;;;;;;;;9.00;99.90;;;;;;7335619;19;110196;-72
2023/10/16 08:49:53;;;;;;;;;;;9.10;99.90;;;;;;7337035;19;110641;-72
2023/10/16 08:52:33;;;;;;;;;;;9.30;99.90;;;;;;7337752;19;109030;-73
2023/10/16 08:55:14;;;;;;;;;;;9.40;99.90;;;;;;7338030;19;109040;-72
2023/10/16 08:57:44;;;;;;;;;;;9.50;99.90;;;;;;7336820;19;109449;-71
2023/10/16 09:00:19;;;;;;;;;;;9.60;99.90;;;;;;7341827;19;108654;-71
2023/10/16 09:02:53;;;;;;;;;;;9.70;99.90;;;;;;7335390;19;111329;-71
2023/10/16 09:05:23;;;;;;;;;;;9.80;99.90;;;;;;7336860;19;108806;-72
2023/10/16 09:07:51;;;;;;;;;;;9.90;99.90;;;;;;7337387;19;109820;-71
2023/10/16 09:10:21;;;;;;;;;;;10.00;99.90;;;;;;7333835;19;110513;-76
2023/10/16 09:13:04;;;;;;;;;;;10.10;99.90;;;;;;7339845;19;108982;-77
2023/10/16 09:15:32;;;;;;;;;;;10.20;99.90;;;;;;7339771;19;114703;-74
2023/10/16 09:17:59;;;;;;;;;;;10.30;99.90;;;;;;7336843;19;110287;-77
2023/10/16 09:20:33;;;;;;;;;;;10.40;99.90;;;;;;7336885;19;110580;-76
2023/10/16 09:23:02;;;;;;;;;;;10.50;99.90;;;;;;7338045;19;109632;-71
2023/10/16 09:25:31;;;;;;;;;;;10.60;99.90;;;;;;7337747;19;108608;-72
2023/10/16 09:28:05;;;;;;;;;;;10.70;99.90;;;;;;7333384;19;109096;-71
2023/10/16 09:30:33;;;;;;;;;;;10.80;99.90;;;;;;7338309;19;109883;-72
2023/10/16 09:33:01;;;;;;;;;;;10.80;99.90;;;;;;7332897;19;109892;-71
2023/10/16 09:35:32;;;;;;;;;;;10.90;99.90;;;;;;7337758;19;109419;-72
2023/10/16 09:38:19;;;;;;;;;;;11.00;99.90;;;;;;7334964;19;110393;-71
2023/10/16 09:41:38;;;;;;;;;;;11.10;99.90;;;;;;7335975;19;110021;-71
2023/10/16 09:49:13;;;;;;;;;;;11.30;99.90;;;;;;7334378;19;109223;-72
2023/10/16 09:51:44;;;;;;;;;;;11.50;99.90;;;;;;7336690;19;110227;-73
2023/10/16 09:54:31;;;;;;;;;;;11.60;99.90;;;;;;7337451;19;109988;-71
2023/10/16 09:56:59;;;;;;;;;;;11.80;99.90;;;;;;7335806;19;109482;-71
2023/10/16 09:59:32;;;;;;;;;;;11.90;99.90;;;;;;7336718;19;110113;-71
2023/10/16 10:02:06;;;;;;;;;;;11.90;99.90;;;;;;7334865;19;109713;-71
2023/10/16 10:04:36;;;;;;;;;;;12.00;99.90;;;;;;7335384;19;108728;-71
2023/10/16 10:07:11;;;;;;;;;;;12.10;99.90;;;;;;7333323;19;110891;-71
2023/10/16 10:09:44;;;;;;;;;;;12.10;99.90;;;;;;7339112;19;108818;-71
2023/10/16 10:12:22;;;;;;;;;;;12.20;99.90;;;;;;7332020;19;110251;-72
2023/10/16 10:15:02;;;;;;;;;;;12.30;99.90;;;;;;7333864;19;108797;-71
2023/10/16 10:17:33;;;;;;;;;;;12.50;99.90;;;;;;7335559;19;110471;-71
2023/10/16 10:20:08;;;;;;;;;;;12.60;99.90;;;;;;7335539;19;109263;-70
2023/10/16 10:22:36;;;;;;;;;;;12.70;99.90;;;;;;7336141;19;109186;-71
2023/10/16 10:25:09;;;;;;;;;;;12.80;99.90;;;;;;7335338;19;109143;-71
2023/10/16 10:27:45;;;;;;;;;;;12.90;99.90;;;;;;7333867;19;110402;-71
2023/10/16 10:30:19;;;;;;;;;;;12.90;99.90;;;;;;7333918;19;108636;-71
2023/10/16 10:32:51;;;;;;;;;;;12.90;99.90;;;;;;7337264;19;108558;-71
2023/10/16 10:35:29;;;;;;;;;;;13.00;99.90;;;;;;7332925;19;110358;-71
2023/10/16 10:38:07;;;;;;;;;;;13.00;99.90;;;;;;7333960;19;114791;-78
2023/10/16 10:40:37;;;;;;;;;;;13.20;99.90;;;;;;7332434;19;109477;-79
2023/10/16 10:43:05;;;;;;;;;;;13.20;99.90;;;;;;7333683;19;108900;-77
2023/10/16 10:45:36;;;;;;;;;;;13.30;99.90;;;;;;7334195;19;108800;-75
2023/10/16 10:48:06;;;;;;;;;;;13.40;99.90;;;;;;7332845;19;109917;-77
2023/10/16 10:50:38;;;;;;;;;;;13.50;99.90;;;;;;7339313;19;108263;-88
2023/10/16 10:53:15;;;;;;;;;;;13.60;99.90;;;;;;7364613;19;110583;-87
2023/10/16 10:55:55;;;;;;;;;;;13.60;99.90;;;;;;7369561;19;109832;-88
2023/10/16 10:58:31;;;;;;;;;;;13.70;99.90;;;;;;7367162;19;108268;-87
2023/10/16 11:01:16;;;;;;;;;;;13.60;99.90;;;;;;7353992;19;109152;-87
2023/10/16 11:03:53;;;;;;;;;;;13.60;99.90;;;;;;7323561;19;109302;-89
2023/10/16 11:06:43;;;;;;;;;;;13.60;99.90;;;;;;7328103;19;109727;-87
2023/10/16 11:09:18;;;;;;;;;;;13.60;99.90;;;;;;7326086;19;111058;-88
2023/10/16 11:14:35;;;;;;;;;;;13.70;99.90;;;;;;7329528;19;109800;-70
2023/10/16 11:17:05;;;;;;;;;;;13.80;99.90;;;;;;7337296;19;110507;-70
2023/10/16 11:19:49;;;;;;;;;;;13.90;99.90;;;;;;7333744;19;109453;-70
2023/10/16 11:22:17;;;;;;;;;;;13.90;99.90;;;;;;7334155;19;110884;-70
2023/10/16 11:24:45;;;;;;;;;;;14.00;99.90;;;;;;7328610;19;111557;-70
2023/10/16 11:27:13;;;;;;;;;;;14.10;99.90;;;;;;7332017;19;109363;-70
2023/10/16 11:29:42;;;;;;;;;;;14.10;99.90;;;;;;7331944;19;109101;-70
2023/10/16 11:32:14;;;;;;;;;;;14.10;99.90;;;;;;7331727;19;109765;-70
2023/10/16 11:34:42;;;;;;;;;;;14.10;99.90;;;;;;7331145;19;110902;-71
2023/10/16 11:37:12;;;;;;;;;;;14.10;99.90;;;;;;7331430;19;110141;-70
2023/10/16 11:39:39;;;;;;;;;;;14.00;99.90;;;;;;7338784;19;108654;-70
2023/10/16 11:42:08;;;;;;;;;;;14.00;99.90;;;;;;7331161;19;110268;-70
2023/10/16 11:44:37;;;;;;;;;;;14.10;99.90;;;;;;7332671;19;109676;-70
2023/10/16 11:47:08;;;;;;;;;;;14.10;99.90;;;;;;7330019;19;109096;-70
2023/10/16 11:49:38;;;;;;;;;;;14.20;99.90;;;;;;7330632;19;113293;-70
2023/10/16 11:52:09;;;;;;;;;;;14.40;99.90;;;;;;7331043;19;109763;-70
2023/10/16 11:54:40;;;;;;;;;;;14.40;99.90;;;;;;7331694;19;110939;-70
2023/10/16 11:57:13;;;;;;;;;;;14.50;99.90;;;;;;7329484;19;109780;-70
2023/10/16 11:59:44;;;;;;;;;;;14.60;99.90;;;;;;7331360;19;109533;-70
2023/10/16 12:02:11;;;;;;;;;;;14.60;99.90;;;;;;7334872;19;108947;-70
2023/10/16 12:04:40;;;;;;;;;;;14.70;99.90;;;;;;7333221;19;109511;-70
2023/10/16 12:07:08;;;;;;;;;;;14.80;99.90;;;;;;7331151;19;108839;-70
2023/10/16 12:09:42;;;;;;;;;;;14.90;99.90;;;;;;7331534;19;110576;-70
2023/10/16 12:12:19;;;;;;;;;;;14.90;99.90;;;;;;7330555;19;109875;-70
2023/10/16 12:14:50;;;;;;;;;;;14.90;99.90;;;;;;7330602;19;109809;-70
2023/10/16 12:17:21;;;;;;;;;;;14.90;99.90;;;;;;7334529;19;109316;-70
2023/10/16 12:19:51;;;;;;;;;;;15.00;99.90;;;;;;7334777;19;109011;-70
2023/10/16 12:22:23;;;;;;;;;;;15.10;99.90;;;;;;7339829;19;109452;-70
2023/10/16 12:24:50;;;;;;;;;;;15.30;99.90;;;;;;7341300;19;110458;-70
2023/10/16 12:27:17;;;;;;;;;;;15.50;99.90;;;;;;7336063;19;109575;-70
2023/10/16 12:29:44;;;;;;;;;;;15.50;99.90;;;;;;7333827;19;110329;-70
2023/10/16 12:32:12;;;;;;;;;;;15.50;99.90;;;;;;7336810;19;108935;-70
2023/10/16 12:34:41;;;;;;;;;;;15.40;99.90;;;;;;7336408;19;111028;-70
2023/10/16 12:37:08;;;;;;;;;;;15.40;99.90;;;;;;7336582;19;109100;-71
2023/10/16 12:39:45;;;;;;;;;;;15.30;99.90;;;;;;7339069;19;113576;-71
2023/10/16 12:42:25;;;;;;;;;;;15.40;99.90;;;;;;7337694;19;109444;-71
2023/10/16 12:44:54;;;;;;;;;;;15.50;99.90;;;;;;7338343;19;110090;-71
2023/10/16 12:47:21;;;;;;;;;;;15.60;99.90;;;;;;7340171;19;110415;-71
2023/10/16 12:50:08;;;;;;;;;;;15.70;99.90;;;;;;7335853;19;111780;-71
2023/10/16 12:52:35;;;;;;;;;;;15.80;99.90;;;;;;7336437;19;108812;-70
2023/10/16 12:55:02;;;;;;;;;;;15.90;99.90;;;;;;7338679;19;109128;-70
2023/10/16 12:57:30;;;;;;;;;;;16.00;99.90;;;;;;7336318;19;109337;-71
2023/10/16 12:59:57;;;;;;;;;;;16.10;99.90;;;;;;7338923;19;108490;-73
2023/10/16 13:02:26;;;;;;;;;;;16.10;99.90;;;;;;7336506;19;109504;-70
2023/10/16 13:04:55;;;;;;;;;;;16.20;99.90;;;;;;7334966;19;112611;-70
2023/10/16 13:07:24;;;;;;;;;;;16.20;99.90;;;;;;7334138;19;110149;-70
2023/10/16 13:10:16;;;;;;;;;;;16.30;99.90;;;;;;7339468;19;108676;-70
2023/10/16 13:12:44;;;;;;;;;;;16.10;99.90;;;;;;7333936;19;108783;-71
2023/10/16 13:15:15;;;;;;;;;;;15.90;99.90;;;;;;7335265;19;109417;-71
2023/10/16 13:17:48;;;;;;;;;;;15.90;99.90;;;;;;7336196;19;110346;-70
2023/10/16 13:20:19;;;;;;;;;;;15.90;99.90;;;;;;7336086;19;108724;-71
2023/10/16 13:22:49;;;;;;;;;;;15.90;99.90;;;;;;7335933;19;109340;-69
2023/10/16 13:25:17;;;;;;;;;;;15.90;99.90;;;;;;7336188;19;110075;-71
2023/10/16 13:27:44;;;;;;;;;;;15.90;99.90;;;;;;7335511;19;108756;-70
2023/10/16 13:30:11;;;;;;;;;;;15.80;99.90;;;;;;7339117;19;110358;-70
2023/10/16 13:32:41;;;;;;;;;;;15.80;99.90;;;;;;7336323;19;111404;-70
2023/10/16 13:35:16;;;;;;;;;;;15.70;99.90;;;;;;7335508;19;108710;-70
2023/10/16 13:37:44;;;;;;;;;;;15.70;99.90;;;;;;7328725;19;109095;-70
2023/10/16 13:40:28;;;;;;;;;;;15.80;99.90;;;;;;7331226;19;109305;-70
2023/10/16 13:42:55;;;;;;;;;;;15.80;99.90;;;;;;7337134;19;109218;-70
2023/10/16 13:45:25;;;;;;;;;;;15.90;99.90;;;;;;7333781;19;110465;-71
2023/10/16 13:47:53;;;;;;;;;;;15.90;99.90;;;;;;7335108;19;109133;-71
2023/10/16 13:50:25;;;;;;;;;;;15.80;99.90;;;;;;7336768;19;110613;-70
2023/10/16 13:52:52;;;;;;;;;;;15.80;99.90;;;;;;7341080;19;110294;-71
2023/10/16 13:55:24;;;;;;;;;;;15.50;99.90;;;;;;7332740;19;109549;-70
2023/10/16 13:57:54;;;;;;;;;;;15.40;99.90;;;;;;7335509;19;110494;-70
2023/10/16 14:00:31;;;;;;;;;;;15.50;99.90;;;;;;7333379;19;109708;-70
2023/10/16 14:05:47;;;;;;;;;;;15.60;99.90;;;;;;7335738;19;109801;-71
2023/10/16 14:08:14;;;;;;;;;;;15.70;99.90;;;;;;7334157;19;108708;-70
2023/10/16 14:10:57;;;;;;;;;;;15.80;99.90;;;;;;7335211;19;109140;-72
2023/10/16 14:13:28;;;;;;;;;;;15.80;99.90;;;;;;7334009;19;109698;-71
2023/10/16 14:16:11;;;;;;;;;;;15.90;99.90;;;;;;7340521;19;108719;-70
2023/10/16 14:18:42;;;;;;;;;;;15.90;99.90;;;;;;7333376;19;110120;-70
2023/10/16 14:21:11;;;;;;;;;;;16.00;99.90;;;;;;7335682;19;109301;-70
2023/10/16 14:23:39;;;;;;;;;;;16.10;99.90;;;;;;7334131;19;109144;-70
2023/10/16 14:26:11;;;;;;;;;;;16.20;99.90;;;;;;7335816;19;109096;-72
2023/10/16 14:28:41;;;;;;;;;;;16.30;99.90;;;;;;7334013;19;109308;-70
2023/10/16 14:31:08;;;;;;;;;;;16.30;99.90;;;;;;7333557;19;108684;-70
2023/10/16 14:33:39;;;;;;;;;;;16.30;99.90;;;;;;7331610;19;110288;-70
2023/10/16 14:36:09;;;;;;;;;;;16.40;99.90;;;;;;7333377;19;110485;-70
2023/10/16 14:38:37;;;;;;;;;;;16.40;99.90;;;;;;7337080;19;108869;-72
2023/10/16 14:41:06;;;;;;;;;;;16.50;99.90;;;;;;7332582;19;108956;-71
2023/10/16 14:43:36;;;;;;;;;;;16.50;99.90;;;;;;7334546;19;108927;-70
2023/10/16 14:46:12;;;;;;;;;;;16.60;99.90;;;;;;7331787;19;110145;-71
2023/10/16 14:48:43;;;;;;;;;;;16.50;99.90;;;;;;7333966;19;108367;-70
2023/10/16 14:51:15;;;;;;;;;;;16.30;99.90;;;;;;7328464;19;110702;-70
2023/10/16 14:53:44;;;;;;;;;;;16.20;99.90;;;;;;7334057;19;109564;-71
2023/10/16 14:56:13;;;;;;;;;;;16.20;99.90;;;;;;7333861;19;109687;-70
2023/10/16 14:58:40;;;;;;;;;;;16.00;99.90;;;;;;7334593;19;108559;-71
2023/10/16 15:01:19;;;;;;;;;;;15.90;99.90;;;;;;7337392;19;114346;-70
2023/10/16 15:03:47;;;;;;;;;;;15.70;99.90;;;;;;7331465;19;112308;-71
2023/10/16 15:06:15;;;;;;;;;;;15.60;99.90;;;;;;7333513;19;109097;-71
2023/10/16 15:08:43;;;;;;;;;;;15.40;99.90;;;;;;7334244;19;109535;-71
2023/10/16 15:11:11;;;;;;;;;;;15.30;99.90;;;;;;7331214;19;108958;-71
2023/10/16 15:13:39;;;;;;;;;;;15.30;99.90;;;;;;7333339;19;109742;-71
2023/10/16 15:16:07;;;;;;;;;;;15.30;99.90;;;;;;7332746;19;108552;-71
2023/10/16 15:18:34;;;;;;;;;;;15.30;99.90;;;;;;7332302;19;109082;-66
2023/10/16 15:21:01;;;;;;;;;;;15.30;99.90;;;;;;7327882;19;109233;-66
2023/10/16 15:23:31;;;;;;;;;;;15.30;99.90;;;;;;7337904;19;109230;-66
2023/10/16 15:25:59;;;;;;;;;;;15.30;99.90;;;;;;7333413;19;110350;-66
2023/10/16 15:28:27;;;;;;;;;;;15.40;99.90;;;;;;7330812;19;108516;-66
2023/10/16 15:31:16;;;;;;;;;;;15.40;99.90;;;;;;7331260;19;110786;-66
2023/10/16 15:33:44;;;;;;;;;;;15.40;99.90;;;;;;7331303;19;109122;-66
2023/10/16 15:36:12;;;;;;;;;;;15.40;99.90;;;;;;7330538;19;108622;-66
2023/10/16 15:38:41;;;;;;;;;;;15.50;99.90;;;;;;7330139;19;108697;-66
2023/10/16 15:41:11;;;;;;;;;;;15.40;99.90;;;;;;7329326;19;109483;-67
2023/10/16 15:43:40;;;;;;;;;;;15.40;99.90;;;;;;7336738;19;109594;-66
2023/10/16 15:46:20;;;;;;;;;;;15.30;99.90;;;;;;7327763;19;109949;-67
2023/10/16 15:48:47;;;;;;;;;;;15.20;99.90;;;;;;7328717;19;108722;-66
2023/10/16 15:51:14;;;;;;;;;;;15.10;99.90;;;;;;7332609;19;109229;-68
2023/10/16 15:53:45;;;;;;;;;;;15.00;99.90;;;;;;7338572;19;114720;-67
2023/10/16 15:56:13;;;;;;;;;;;15.00;99.90;;;;;;7335585;19;108992;-66
2023/10/16 15:58:40;;;;;;;;;;;14.90;99.90;;;;;;7336135;19;108757;-66
2023/10/16 16:01:08;;;;;;;;;;;14.90;99.90;;;;;;7336156;19;109627;-66
2023/10/16 16:03:37;;;;;;;;;;;14.80;99.90;;;;;;7339510;19;108446;-66
2023/10/16 16:06:10;;;;;;;;;;;14.80;99.90;;;;;;7344404;19;108752;-66
2023/10/16 16:08:44;;;;;;;;;;;14.70;99.90;;;;;;7337842;19;108528;-66
2023/10/16 16:11:13;;;;;;;;;;;14.60;99.90;;;;;;7334688;19;108704;-68
2023/10/16 16:13:41;;;;;;;;;;;14.40;99.90;;;;;;7335552;19;109349;-68
2023/10/16 16:16:09;;;;;;;;;;;14.30;99.90;;;;;;7338697;19;110316;-67
2023/10/16 16:18:37;;;;;;;;;;;14.20;99.90;;;;;;7336262;19;109188;-66